createdAt,value
2022-09-28T00:05:32.961Z,3.22
2022-09-28T00:16:04.385Z,3.50
2022-09-28T00:26:26.663Z,3.80
2022-09-28T00:36:50.572Z,4.15
2022-09-28T00:47:39.023Z,3.60
2022-09-28T00:58:05.580Z,3.65
2022-09-28T01:08:29.275Z,3.13
2022-09-28T01:19:00.653Z,4.00
2022-09-28T01:29:46.933Z,3.58
2022-09-28T01:40:11.022Z,3.63
2022-09-28T01:50:39.358Z,3.65
2022-09-28T02:01:05.211Z,4.05
2022-09-28T02:11:28.816Z,4.73
2022-09-28T02:21:55.719Z,4.75
2022-09-28T02:32:21.219Z,4.18
2022-09-28T02:42:53.630Z,4.78
2022-09-28T02:53:33.691Z,4.97
2022-09-28T03:04:02.035Z,4.90
2022-09-28T03:14:25.396Z,3.90
2022-09-28T03:24:50.948Z,4.88
2022-09-28T03:35:13.724Z,5.68
2022-09-28T03:45:35.421Z,5.05
2022-09-28T03:56:03.670Z,4.90
2022-09-28T04:06:26.317Z,3.97
2022-09-28T04:16:51.606Z,5.80
2022-09-28T04:27:30.896Z,5.20
2022-09-28T04:37:53.666Z,5.25
2022-09-28T04:48:14.942Z,5.60
2022-09-28T04:58:59.803Z,4.85
2022-09-28T05:09:21.965Z,5.13
2022-09-28T05:19:45.193Z,5.32
2022-09-28T05:30:08.418Z,6.32
2022-09-28T05:40:50.177Z,4.78
2022-09-28T05:51:12.049Z,5.25
2022-09-28T06:01:35.459Z,5.07
2022-09-28T06:11:59.360Z,5.43
2022-09-28T06:22:37.204Z,5.85
2022-09-28T06:33:03.038Z,5.73
2022-09-28T06:43:32.142Z,5.63
2022-09-28T06:54:08.342Z,5.22
2022-09-28T07:04:45.119Z,5.55
2022-09-28T07:15:26.240Z,3.83
2022-09-28T07:25:50.198Z,5.43
2022-09-28T07:36:39.121Z,5.10
2022-09-28T07:47:02.654Z,4.60
2022-09-28T07:57:48.140Z,5.15
2022-09-28T08:08:22.654Z,4.97
2022-09-28T08:18:44.167Z,4.50
2022-09-28T08:29:08.151Z,4.53
2022-09-28T08:39:41.370Z,3.17
2022-09-28T08:50:24.563Z,2.42
2022-09-28T09:01:18.950Z,2.17
2022-09-28T09:11:58.685Z,2.30
2022-09-28T09:22:32.849Z,2.60
2022-09-28T09:33:11.433Z,2.00
2022-09-28T09:44:06.797Z,2.20
2022-09-28T09:55:04.867Z,2.10
2022-09-28T10:05:42.341Z,2.80
2022-09-28T10:16:13.290Z,2.55
2022-09-28T10:26:50.547Z,3.05
2022-09-28T10:37:24.322Z,3.08
2022-09-28T10:48:07.425Z,3.35
2022-09-28T10:58:37.407Z,2.85
2022-09-28T11:09:09.045Z,3.00
2022-09-28T11:19:31.784Z,2.85
2022-09-28T11:30:02.303Z,3.60
2022-09-28T11:40:52.065Z,2.95
2022-09-28T11:51:21.860Z,4.25
2022-09-28T12:02:04.018Z,3.75
2022-09-28T12:12:48.514Z,3.20
2022-09-28T12:23:16.542Z,3.47
2022-09-28T12:33:39.998Z,2.58
2022-09-28T12:44:18.476Z,3.55
2022-09-28T12:55:05.101Z,2.55
2022-09-28T13:05:44.969Z,2.30
2022-09-28T13:16:13.947Z,3.00
2022-09-28T13:26:39.483Z,2.78
2022-09-28T13:37:26.829Z,2.80
2022-09-28T13:48:04.028Z,2.13
2022-09-28T13:58:29.110Z,3.42
2022-09-28T14:09:26.006Z,2.40
2022-09-28T14:19:54.668Z,2.33
2022-09-28T14:30:32.725Z,2.90
2022-09-28T14:41:15.770Z,1.98
2022-09-28T14:52:04.318Z,2.40
2022-09-28T15:02:32.428Z,2.05
2022-09-28T15:12:57.180Z,1.73
2022-09-28T15:23:35.613Z,2.25
2022-09-28T15:34:15.262Z,1.85
2022-09-28T15:44:42.962Z,2.40
2022-09-28T15:55:19.941Z,2.45
2022-09-28T16:05:46.843Z,2.60
2022-09-28T16:16:16.307Z,2.35
2022-09-28T16:26:39.413Z,3.58
2022-09-28T16:37:00.809Z,3.80
2022-09-28T16:47:23.951Z,4.20
2022-09-28T16:57:46.537Z,4.35
2022-09-28T17:08:14.690Z,4.40
2022-09-28T17:18:46.502Z,5.85
2022-09-28T17:29:14.716Z,5.20
2022-09-28T17:39:36.460Z,15.05
2022-09-28T17:49:59.810Z,6.28
2022-09-28T18:00:24.007Z,6.15
2022-09-28T18:10:47.589Z,6.43
2022-09-28T18:21:10.375Z,6.35
2022-09-28T18:31:34.978Z,5.40
2022-09-28T18:42:12.297Z,6.68
2022-09-28T18:52:39.493Z,5.43
2022-09-28T19:03:13.597Z,5.55
2022-09-28T19:13:38.633Z,6.53
2022-09-28T19:24:05.059Z,7.15
2022-09-28T19:34:36.429Z,7.70
2022-09-28T19:45:00.759Z,9.23
2022-09-28T19:55:25.209Z,9.65
2022-09-28T20:05:49.351Z,8.02
2022-09-28T20:16:14.517Z,9.13
2022-09-28T20:26:37.938Z,8.07
2022-09-28T20:37:01.218Z,9.13
2022-09-28T20:47:23.700Z,9.02
2022-09-28T20:57:46.862Z,8.27
2022-09-28T21:08:08.298Z,6.22
2022-09-28T21:18:31.310Z,6.80
2022-09-28T21:28:53.853Z,7.43
2022-09-28T21:39:22.181Z,5.97
2022-09-28T21:49:43.942Z,8.55
2022-09-28T22:00:08.142Z,5.95
2022-09-28T22:10:29.413Z,6.30
2022-09-28T22:20:59.258Z,5.97
2022-09-28T22:31:23.297Z,6.28
2022-09-28T22:41:49.220Z,7.22
2022-09-28T22:52:17.607Z,6.80
2022-09-28T23:02:40.875Z,5.90
2022-09-28T23:13:02.606Z,5.95
2022-09-28T23:23:25.392Z,6.20
2022-09-28T23:33:52.812Z,7.10
2022-09-28T23:44:20.920Z,6.82
2022-09-28T23:54:46.762Z,5.75
